Triplet, Virginia
Current Conditions -  °F | °C
As of 10:55 AM on Friday 24 Oct 2014 (Local Time) from KLVL Reporting Station
Clear Clear  
Wind Chill: 61°   Ceiling: Unl
Heat Index: 61°   Visibility: 10mi
Dew Point: 45°   Wind: 6mph
Humidity: 56%   Direction: 310°NW
Pressure: 30.03"   Gusts: NA
Location:  36.6987°N, 77.8207°W
Report Text: KLVL 241455Z AUTO 31005KT 10SM CLR 16/07 A3003 RMK AO1 T01620073
Loading
Personal Weather Stations






























Interactive Weather Map
Tropical Storm Tracking
New forecast layout! Learn more

10-Day Weather Forecast

Advertisements
Track Severe Weather on mobile